Time;durP1;ratioP1;P1;durP2;ratioP2;P2;SDS_P1;SDS_P2;PMS_P1;PMS_P2;Temp;Humidity;BMP_temperature;BMP_pressure;BME280_temperature;BME280_humidity;BME280_pressure;Samples;Min_cycle;Max_cycle;Signal;HPM_P1;HPM_P2
2021/11/11 00:00:50;;;;;;;33.30;19.33;;;7.00;91.50;;;;;;5035529;28;20080;-77
2021/11/11 00:03:18;;;;;;;34.07;19.53;;;6.80;91.50;;;;;;5035364;28;20104;-77
2021/11/11 00:05:44;;;;;;;36.67;19.67;;;6.90;91.60;;;;;;5050813;28;20033;-77
2021/11/11 00:08:11;;;;;;;36.50;19.53;;;6.80;91.60;;;;;;5035243;28;20087;-76
2021/11/11 00:10:37;;;;;;;40.53;20.33;;;6.80;91.60;;;;;;5050606;28;20080;-77
2021/11/11 00:13:03;;;;;;;35.97;18.70;;;6.80;91.70;;;;;;5057299;28;20029;-77
2021/11/11 00:15:29;;;;;;;33.97;19.67;;;6.70;91.70;;;;;;5051140;28;20032;-77
2021/11/11 00:17:56;;;;;;;32.37;19.40;;;6.80;92.10;;;;;;5054674;28;20384;-76
2021/11/11 00:20:24;;;;;;;32.73;19.23;;;6.70;91.90;;;;;;5048613;28;20026;-76
2021/11/11 00:22:51;;;;;;;34.33;19.93;;;6.80;91.90;;;;;;5035033;28;20074;-78
2021/11/11 00:25:19;;;;;;;34.50;19.03;;;6.60;91.80;;;;;;5034725;28;20052;-77
2021/11/11 00:27:45;;;;;;;35.30;18.70;;;6.60;91.80;;;;;;5033716;28;20124;-77
2021/11/11 00:30:12;;;;;;;37.87;19.27;;;6.60;91.90;;;;;;5033683;28;20021;-77
2021/11/11 00:32:39;;;;;;;32.30;18.60;;;6.60;92.00;;;;;;5034666;28;20061;-77
2021/11/11 00:35:11;;;;;;;36.70;19.67;;;6.50;92.00;;;;;;5033466;28;20497;-77
2021/11/11 00:37:37;;;;;;;35.20;18.57;;;6.50;92.10;;;;;;5034913;28;20025;-77
2021/11/11 00:40:05;;;;;;;38.27;19.53;;;6.40;92.10;;;;;;5034763;28;20030;-77
2021/11/11 00:42:31;;;;;;;31.17;18.97;;;6.40;92.20;;;;;;5034746;28;20104;-74
2021/11/11 00:44:57;;;;;;;40.67;20.07;;;6.40;92.20;;;;;;5035100;28;20034;-74
2021/11/11 00:47:23;;;;;;;35.53;19.77;;;6.40;92.20;;;;;;5033837;28;20057;-74
2021/11/11 00:49:49;;;;;;;38.10;19.97;;;6.30;92.40;;;;;;5033715;28;20069;-74
2021/11/11 00:52:15;;;;;;;36.03;18.93;;;6.30;92.30;;;;;;5017257;28;20033;-75
2021/11/11 00:54:42;;;;;;;34.73;18.57;;;6.20;92.30;;;;;;5033107;28;20087;-74
2021/11/11 00:57:08;;;;;;;34.10;19.13;;;6.20;92.40;;;;;;5033348;28;20112;-74
2021/11/11 00:59:34;;;;;;;33.57;18.17;;;6.20;92.50;;;;;;5034410;28;20021;-74
2021/11/11 01:02:02;;;;;;;37.37;18.90;;;6.20;92.60;;;;;;5033082;28;20033;-74
2021/11/11 01:04:28;;;;;;;33.17;19.43;;;6.20;92.70;;;;;;5016715;28;20057;-74
2021/11/11 01:06:54;;;;;;;33.50;18.97;;;6.20;92.80;;;;;;5033406;28;20378;-74
2021/11/11 01:09:19;;;;;;;33.03;18.73;;;6.20;92.90;;;;;;5033486;28;20120;-74
2021/11/11 01:11:45;;;;;;;32.90;18.40;;;6.20;93.00;;;;;;5033034;28;20034;-74
2021/11/11 01:14:11;;;;;;;31.53;18.77;;;6.20;93.10;;;;;;5032991;28;20057;-74
2021/11/11 01:16:36;;;;;;;36.90;19.27;;;6.30;93.30;;;;;;5034364;28;20061;-74
2021/11/11 01:19:02;;;;;;;39.23;20.03;;;6.30;93.30;;;;;;5034391;28;20029;-74
2021/11/11 01:21:28;;;;;;;36.37;17.67;;;6.40;93.30;;;;;;5032834;28;20061;-74
2021/11/11 01:23:54;;;;;;;34.50;19.43;;;6.40;93.40;;;;;;5033188;28;20025;-74
2021/11/11 01:26:20;;;;;;;29.73;17.13;;;6.50;93.40;;;;;;5033908;28;20107;-74
2021/11/11 01:28:46;;;;;;;36.57;19.30;;;6.40;93.40;;;;;;5033059;28;20099;-74
2021/11/11 01:31:12;;;;;;;36.70;17.70;;;6.40;93.50;;;;;;5033637;28;20049;-74
2021/11/11 01:33:38;;;;;;;33.13;17.97;;;6.50;93.60;;;;;;5033731;28;20029;-74
2021/11/11 01:36:04;;;;;;;36.37;19.30;;;6.50;93.70;;;;;;5032644;28;20100;-74
2021/11/11 01:38:29;;;;;;;30.83;18.67;;;6.60;93.70;;;;;;5034028;28;20036;-74
2021/11/11 01:40:55;;;;;;;31.40;17.50;;;6.60;93.70;;;;;;5034075;28;20037;-74
2021/11/11 01:43:21;;;;;;;33.50;17.93;;;6.60;93.70;;;;;;5032665;28;20033;-74
2021/11/11 01:45:47;;;;;;;36.93;19.53;;;6.60;93.70;;;;;;5032463;28;20034;-74
2021/11/11 01:48:15;;;;;;;35.53;19.53;;;6.60;93.70;;;;;;5032566;28;20052;-75
2021/11/11 01:50:42;;;;;;;33.60;19.63;;;6.70;93.70;;;;;;5033655;28;20029;-74
2021/11/11 01:53:09;;;;;;;34.00;18.27;;;6.70;93.60;;;;;;5032336;28;20041;-74
2021/11/11 01:55:36;;;;;;;34.33;19.63;;;6.80;93.70;;;;;;5033842;28;20037;-74
2021/11/11 01:58:03;;;;;;;33.17;18.10;;;6.80;93.70;;;;;;5033650;28;20048;-74
2021/11/11 02:00:35;;;;;;;34.03;19.77;;;6.80;93.70;;;;;;5032359;28;20030;-74
2021/11/11 02:03:03;;;;;;;30.97;17.77;;;6.80;93.70;;;;;;5048650;28;20493;-74
2021/11/11 02:05:30;;;;;;;37.23;19.00;;;6.80;93.70;;;;;;5033442;28;20041;-74
2021/11/11 02:07:56;;;;;;;34.73;19.53;;;6.90;93.70;;;;;;5015740;28;20026;-74
2021/11/11 02:10:24;;;;;;;36.33;20.40;;;6.90;93.70;;;;;;5031975;28;20036;-74
2021/11/11 02:12:50;;;;;;;38.83;19.50;;;6.90;93.70;;;;;;5033654;28;20033;-74
2021/11/11 02:15:19;;;;;;;40.20;20.60;;;7.00;93.70;;;;;;5016037;28;20124;-74
2021/11/11 02:17:45;;;;;;;35.40;19.80;;;6.90;93.60;;;;;;5036281;28;20101;-74
2021/11/11 02:20:23;;;;;;;35.43;19.43;;;6.90;93.60;;;;;;5037427;28;20539;-74
2021/11/11 02:22:50;;;;;;;38.23;20.50;;;7.00;93.60;;;;;;5036082;28;20026;-75
2021/11/11 02:25:21;;;;;;;34.53;19.73;;;7.00;93.50;;;;;;5036339;28;20034;-74
2021/11/11 02:27:49;;;;;;;38.83;21.17;;;6.90;93.50;;;;;;5037149;28;20149;-74
2021/11/11 02:30:17;;;;;;;35.00;20.47;;;6.90;93.80;;;;;;5036120;28;20043;-74
2021/11/11 02:32:43;;;;;;;34.43;20.57;;;7.00;93.40;;;;;;5037093;28;20049;-75
2021/11/11 02:35:11;;;;;;;31.90;19.40;;;7.00;93.40;;;;;;5036353;28;20094;-74
2021/11/11 02:37:39;;;;;;;35.47;19.20;;;7.00;93.30;;;;;;5036100;28;20484;-74
2021/11/11 02:40:10;;;;;;;34.93;19.57;;;7.00;93.40;;;;;;5035851;28;20025;-74
2021/11/11 02:42:37;;;;;;;33.13;18.67;;;7.00;93.40;;;;;;5036029;28;20021;-74
2021/11/11 02:45:06;;;;;;;36.80;20.23;;;7.00;93.40;;;;;;5036259;28;20249;-74
2021/11/11 02:47:33;;;;;;;36.60;20.77;;;7.00;93.40;;;;;;5035939;28;20029;-74
2021/11/11 02:49:59;;;;;;;37.03;21.30;;;7.10;93.40;;;;;;5019223;28;20030;-74
2021/11/11 02:52:25;;;;;;;38.50;21.93;;;7.00;93.30;;;;;;5037358;28;20112;-74
2021/11/11 02:54:52;;;;;;;42.67;20.93;;;7.10;93.20;;;;;;5036671;28;20535;-74
2021/11/11 02:57:30;;;;;;;40.40;21.80;;;7.10;93.20;;;;;;5035418;28;20021;-74
2021/11/11 02:59:59;;;;;;;39.60;20.17;;;7.10;93.20;;;;;;5035619;28;20033;-74
2021/11/11 03:02:31;;;;;;;41.50;21.50;;;7.00;93.20;;;;;;5035364;28;20030;-74
2021/11/11 03:04:57;;;;;;;36.83;20.23;;;7.10;93.10;;;;;;5036505;28;20029;-74
2021/11/11 03:07:25;;;;;;;40.73;21.73;;;7.10;93.10;;;;;;5035620;28;20052;-74
2021/11/11 03:09:51;;;;;;;44.00;23.87;;;7.20;93.10;;;;;;5035354;28;20033;-74
2021/11/11 03:12:18;;;;;;;39.50;22.43;;;7.20;93.20;;;;;;5035417;28;20037;-74
2021/11/11 03:14:45;;;;;;;42.00;23.27;;;7.10;93.10;;;;;;5019026;28;20033;-74
2021/11/11 03:17:11;;;;;;;36.63;21.37;;;7.10;92.90;;;;;;5036518;28;20474;-74
2021/11/11 03:19:39;;;;;;;37.67;20.63;;;7.00;92.90;;;;;;5018835;28;20029;-74
2021/11/11 03:22:10;;;;;;;40.20;21.47;;;7.00;92.90;;;;;;5036231;28;20029;-74
2021/11/11 03:24:37;;;;;;;38.23;21.53;;;6.90;93.00;;;;;;5034894;28;20033;-75
2021/11/11 03:27:04;;;;;;;35.23;19.83;;;6.90;93.00;;;;;;5034594;28;20092;-73
2021/11/11 03:29:30;;;;;;;35.57;20.80;;;6.90;93.20;;;;;;5036408;28;20021;-73
2021/11/11 03:31:56;;;;;;;35.00;20.93;;;6.90;93.20;;;;;;5035865;28;20053;-74
2021/11/11 03:34:23;;;;;;;44.47;22.30;;;6.90;93.30;;;;;;5018548;28;20025;-73
2021/11/11 03:36:50;;;;;;;35.77;19.47;;;6.90;93.30;;;;;;5018814;28;20414;-74
2021/11/11 03:39:17;;;;;;;35.90;20.17;;;6.90;93.50;;;;;;5068190;28;20044;-74
2021/11/11 03:41:43;;;;;;;38.40;20.00;;;7.00;93.30;;;;;;5035098;28;20025;-74
2021/11/11 03:44:09;;;;;;;39.17;21.03;;;7.00;93.30;;;;;;5036370;28;20056;-74
2021/11/11 03:46:34;;;;;;;41.47;21.97;;;7.00;93.30;;;;;;5036156;28;20033;-74
2021/11/11 03:49:00;;;;;;;37.43;20.10;;;7.00;93.30;;;;;;5018390;28;20033;-74
2021/11/11 03:51:26;;;;;;;36.60;19.63;;;7.00;93.30;;;;;;5035807;28;20026;-73
2021/11/11 03:53:52;;;;;;;37.90;19.93;;;7.10;93.30;;;;;;5035884;28;20037;-74
2021/11/11 03:56:18;;;;;;;39.17;21.03;;;7.10;93.20;;;;;;5035708;28;20482;-74
2021/11/11 03:58:45;;;;;;;46.07;22.47;;;7.10;93.20;;;;;;5034876;28;20052;-74
2021/11/11 04:01:12;;;;;;;38.37;21.07;;;7.10;93.20;;;;;;5034494;28;20033;-74
2021/11/11 04:03:38;;;;;;;40.50;20.80;;;7.00;93.20;;;;;;5035674;28;20025;-74
2021/11/11 04:06:03;;;;;;;38.83;20.37;;;7.00;93.20;;;;;;5034630;28;20037;-74
2021/11/11 04:08:30;;;;;;;41.30;20.83;;;7.10;93.30;;;;;;5034495;28;20037;-74
2021/11/11 04:10:56;;;;;;;39.77;20.43;;;7.00;93.30;;;;;;5034342;28;20037;-77
2021/11/11 04:13:22;;;;;;;36.77;21.40;;;7.10;93.40;;;;;;5034122;28;20116;-77
2021/11/11 04:15:47;;;;;;;34.80;19.03;;;7.10;93.40;;;;;;5033976;28;20116;-77
2021/11/11 04:18:13;;;;;;;38.20;20.60;;;7.10;93.40;;;;;;5035297;28;20083;-77
2021/11/11 04:20:39;;;;;;;36.50;20.97;;;7.10;93.40;;;;;;5034134;28;20033;-77
2021/11/11 04:23:05;;;;;;;40.10;21.57;;;7.10;93.40;;;;;;5035434;28;20196;-77
2021/11/11 04:28:09;;;;;;;38.20;20.63;;;7.30;93.50;;;;;;5035339;28;20039;-77
2021/11/11 04:30:36;;;;;;;37.63;20.80;;;7.10;93.40;;;;;;5035151;28;20025;-78
2021/11/11 04:33:03;;;;;;;37.90;21.60;;;7.20;93.40;;;;;;5035121;28;20033;-78
2021/11/11 04:35:30;;;;;;;36.73;20.23;;;7.20;93.40;;;;;;5034906;28;20033;-77
2021/11/11 04:38:03;;;;;;;41.63;21.97;;;7.20;93.40;;;;;;5033967;28;20116;-77
2021/11/11 05:04:13;;;;;;;42.33;20.77;;;7.60;93.50;;;;;;5053897;28;20029;-74
2021/11/11 05:06:39;;;;;;;36.43;20.50;;;7.50;93.30;;;;;;5053861;28;20036;-74
2021/11/11 05:09:05;;;;;;;45.33;21.97;;;7.50;93.30;;;;;;5035779;28;20086;-74
2021/11/11 05:11:31;;;;;;;37.53;21.30;;;7.60;93.30;;;;;;5053155;28;20033;-74
2021/11/11 05:13:57;;;;;;;38.50;21.00;;;7.50;93.50;;;;;;5052920;28;20055;-74
2021/11/11 05:16:23;;;;;;;36.33;21.83;;;7.60;93.20;;;;;;5052318;28;20480;-74
2021/11/11 05:18:49;;;;;;;38.40;21.57;;;7.70;93.20;;;;;;5053174;28;20477;-74
2021/11/11 05:21:15;;;;;;;40.40;21.17;;;7.60;93.10;;;;;;5054145;28;20052;-75
2021/11/11 05:23:41;;;;;;;38.53;22.03;;;7.60;93.10;;;;;;5053064;28;20040;-74
2021/11/11 05:26:07;;;;;;;39.73;21.63;;;7.60;93.10;;;;;;5052848;28;20036;-75
2021/11/11 05:28:33;;;;;;;39.17;20.37;;;7.60;93.10;;;;;;5052862;28;20033;-74
2021/11/11 05:30:59;;;;;;;34.67;20.33;;;7.60;93.10;;;;;;5052485;28;20478;-74
2021/11/11 05:33:25;;;;;;;40.87;22.00;;;7.60;93.10;;;;;;5053732;28;20032;-74
2021/11/11 05:35:51;;;;;;;38.80;21.03;;;7.60;93.10;;;;;;5052676;28;20033;-74
2021/11/11 05:38:17;;;;;;;36.60;20.47;;;7.70;93.20;;;;;;5036069;28;20116;-74
2021/11/11 05:40:42;;;;;;;36.90;21.03;;;7.60;93.10;;;;;;5053820;28;20029;-74
2021/11/11 05:43:08;;;;;;;33.37;19.33;;;7.60;93.10;;;;;;5035898;28;20052;-74
2021/11/11 05:45:34;;;;;;;36.47;20.07;;;7.70;93.10;;;;;;5054012;28;20033;-74
2021/11/11 05:48:00;;;;;;;38.47;21.80;;;7.70;93.10;;;;;;5052431;28;20040;-74
2021/11/11 05:50:26;;;;;;;42.27;21.60;;;7.60;93.00;;;;;;5053624;28;20485;-74
2021/11/11 05:52:52;;;;;;;41.27;21.13;;;7.70;93.00;;;;;;5052483;28;20520;-74
2021/11/11 05:55:18;;;;;;;39.07;19.53;;;7.60;93.00;;;;;;5051897;28;20021;-75
2021/11/11 05:57:44;;;;;;;43.97;21.57;;;7.70;93.00;;;;;;5037257;28;20033;-74
2021/11/11 06:00:16;;;;;;;42.20;20.93;;;7.70;93.00;;;;;;5032314;28;20026;-74
2021/11/11 06:02:45;;;;;;;35.00;20.20;;;7.60;93.00;;;;;;5050949;28;20029;-77
2021/11/11 06:05:11;;;;;;;36.30;20.37;;;7.70;93.00;;;;;;5052027;28;20025;-77
2021/11/11 06:07:37;;;;;;;36.97;21.13;;;7.70;93.10;;;;;;5039064;28;20095;-77
2021/11/11 06:10:05;;;;;;;42.10;22.17;;;7.70;93.00;;;;;;5035137;28;20105;-77
2021/11/11 06:12:31;;;;;;;39.83;21.90;;;7.70;93.00;;;;;;5052755;28;20399;-77
2021/11/11 06:14:57;;;;;;;37.43;20.20;;;7.70;93.00;;;;;;5067942;28;20037;-77
2021/11/11 06:17:24;;;;;;;38.23;20.97;;;7.70;93.00;;;;;;5035767;28;20560;-77
2021/11/11 06:19:50;;;;;;;36.83;20.57;;;7.70;93.00;;;;;;5032485;28;20398;-77
2021/11/11 06:22:16;;;;;;;35.90;22.23;;;7.60;93.00;;;;;;5031997;28;20037;-77
2021/11/11 06:24:42;;;;;;;36.37;20.87;;;7.60;93.00;;;;;;5033046;28;20022;-77
2021/11/11 06:27:08;;;;;;;36.07;20.40;;;7.70;93.10;;;;;;5032863;28;20151;-77
2021/11/11 06:29:34;;;;;;;38.10;21.20;;;7.70;93.10;;;;;;5033198;28;20108;-77
2021/11/11 06:31:59;;;;;;;36.40;22.10;;;7.70;93.10;;;;;;5048200;28;20464;-77
2021/11/11 06:34:25;;;;;;;36.80;20.43;;;7.80;93.10;;;;;;5048405;28;20173;-77
2021/11/11 06:36:51;;;;;;;37.03;22.27;;;7.70;93.10;;;;;;5031863;28;20033;-77
2021/11/11 06:39:16;;;;;;;38.97;22.37;;;7.80;93.10;;;;;;5031588;28;20036;-76
2021/11/11 06:41:42;;;;;;;38.60;21.20;;;7.80;93.10;;;;;;5015248;28;20375;-77
2021/11/11 06:44:08;;;;;;;44.00;23.30;;;7.80;93.10;;;;;;5039071;28;20033;-77
2021/11/11 06:46:35;;;;;;;41.23;22.03;;;7.80;93.10;;;;;;5052904;28;20553;-76
2021/11/11 06:49:00;;;;;;;39.23;20.20;;;7.80;93.10;;;;;;5035199;28;20023;-77
2021/11/11 06:51:26;;;;;;;40.77;22.47;;;7.80;93.10;;;;;;5034897;28;20116;-77
2021/11/11 06:53:52;;;;;;;41.33;21.27;;;7.90;93.10;;;;;;5035023;28;20051;-77
2021/11/11 06:56:17;;;;;;;39.27;22.10;;;7.90;93.30;;;;;;5051574;28;20079;-77
2021/11/11 06:58:43;;;;;;;37.33;22.20;;;7.90;93.30;;;;;;5052512;28;20398;-77
2021/11/11 07:01:09;;;;;;;35.50;20.77;;;7.90;93.00;;;;;;5048262;28;20713;-77
2021/11/11 07:03:35;;;;;;;40.63;22.73;;;7.80;93.00;;;;;;5035091;28;20048;-77
2021/11/11 07:06:00;;;;;;;39.83;22.37;;;7.80;93.00;;;;;;5055901;28;20037;-76
2021/11/11 07:08:26;;;;;;;38.93;22.40;;;7.80;93.10;;;;;;5055223;28;20052;-76
2021/11/11 07:10:54;;;;;;;38.33;21.77;;;7.80;93.10;;;;;;5056403;28;20056;-76
2021/11/11 07:13:21;;;;;;;38.70;21.90;;;7.90;93.10;;;;;;5054823;28;20068;-77
2021/11/11 07:15:47;;;;;;;36.83;21.57;;;7.90;93.10;;;;;;5054710;28;20056;-77
2021/11/11 07:18:14;;;;;;;36.07;20.83;;;7.90;93.10;;;;;;5054941;28;20059;-77
2021/11/11 07:20:44;;;;;;;40.53;21.83;;;7.80;93.10;;;;;;5055769;28;20025;-73
2021/11/11 07:23:12;;;;;;;44.53;23.13;;;7.90;93.10;;;;;;5054285;28;20474;-74
2021/11/11 07:25:37;;;;;;;40.93;22.37;;;8.10;93.30;;;;;;5054591;28;20111;-74
2021/11/11 07:28:03;;;;;;;46.60;23.60;;;8.00;93.40;;;;;;5055700;28;20108;-74
2021/11/11 07:30:29;;;;;;;46.10;24.80;;;8.00;93.60;;;;;;5037609;28;20477;-74
2021/11/11 07:32:55;;;;;;;48.47;25.33;;;7.90;93.60;;;;;;5055576;28;20065;-74
2021/11/11 07:35:21;;;;;;;43.57;25.27;;;7.90;93.30;;;;;;5055804;28;20099;-74
2021/11/11 07:37:50;;;;;;;44.57;23.97;;;7.90;93.20;;;;;;5055683;28;20416;-74
2021/11/11 07:40:18;;;;;;;39.10;22.10;;;7.90;93.30;;;;;;5055904;28;20021;-74
2021/11/11 07:42:45;;;;;;;38.37;20.40;;;7.90;93.30;;;;;;5055332;28;20025;-74
2021/11/11 07:45:13;;;;;;;37.97;21.77;;;8.00;93.30;;;;;;5055198;28;20040;-74
2021/11/11 07:47:39;;;;;;;45.07;23.83;;;8.00;93.30;;;;;;5054098;28;20016;-74
2021/11/11 07:50:07;;;;;;;45.67;25.67;;;8.00;93.40;;;;;;5054419;28;20128;-75
2021/11/11 07:52:33;;;;;;;48.27;25.73;;;8.00;93.40;;;;;;5054283;28;20013;-74
2021/11/11 07:55:01;;;;;;;42.70;25.23;;;8.10;93.30;;;;;;5053871;28;20056;-74
2021/11/11 07:57:30;;;;;;;44.37;23.90;;;8.00;93.20;;;;;;5055582;28;20080;-74
2021/11/11 07:59:56;;;;;;;40.70;24.47;;;8.00;93.20;;;;;;5055414;28;20025;-74
2021/11/11 08:02:23;;;;;;;45.77;24.10;;;8.10;93.30;;;;;;5054345;28;20367;-75
2021/11/11 08:04:49;;;;;;;46.07;26.10;;;8.10;93.30;;;;;;5055741;28;20029;-74
2021/11/11 08:07:17;;;;;;;43.23;24.03;;;8.20;93.20;;;;;;5054268;28;20504;-74
2021/11/11 08:09:45;;;;;;;42.33;25.37;;;8.20;93.20;;;;;;5054329;28;20027;-74
2021/11/11 08:12:10;;;;;;;48.60;27.50;;;8.20;93.20;;;;;;5055366;28;20021;-74
2021/11/11 08:14:36;;;;;;;47.87;26.83;;;8.20;93.10;;;;;;5054322;28;20018;-74
2021/11/11 08:17:02;;;;;;;44.33;25.53;;;8.20;93.10;;;;;;5054140;28;20021;-74
2021/11/11 08:19:28;;;;;;;44.13;25.00;;;8.20;93.00;;;;;;5053967;28;20032;-74
2021/11/11 08:21:54;;;;;;;44.70;25.83;;;8.30;93.00;;;;;;5054126;28;20029;-74
2021/11/11 08:24:19;;;;;;;46.60;26.30;;;8.30;93.00;;;;;;5054725;28;20037;-74
2021/11/11 08:26:45;;;;;;;41.67;23.97;;;8.30;92.90;;;;;;5053443;28;20116;-74
2021/11/11 08:29:11;;;;;;;46.77;25.27;;;8.30;92.90;;;;;;5053770;28;20078;-74
2021/11/11 08:31:37;;;;;;;48.93;26.37;;;8.40;92.70;;;;;;5053889;28;20532;-74
2021/11/11 08:34:03;;;;;;;46.77;25.87;;;8.40;92.60;;;;;;5053302;28;20041;-75
2021/11/11 08:36:28;;;;;;;45.03;25.40;;;8.30;92.50;;;;;;5053217;28;20029;-75
2021/11/11 08:39:01;;;;;;;45.47;25.40;;;8.50;92.50;;;;;;5036783;28;20025;-74
2021/11/11 08:41:27;;;;;;;48.43;25.33;;;8.40;92.30;;;;;;5033744;28;20160;-75
2021/11/11 08:43:55;;;;;;;40.57;23.70;;;8.40;92.30;;;;;;5033927;28;20041;-74
2021/11/11 08:46:21;;;;;;;47.07;27.10;;;8.40;92.30;;;;;;5034798;28;20029;-74
2021/11/11 08:48:47;;;;;;;45.80;26.33;;;8.40;92.20;;;;;;5033416;28;20535;-74
2021/11/11 08:51:13;;;;;;;45.10;24.63;;;8.40;92.20;;;;;;5034535;28;20079;-74
2021/11/11 08:53:39;;;;;;;47.13;25.47;;;8.50;92.30;;;;;;5033103;28;20064;-75
2021/11/11 08:56:05;;;;;;;47.97;25.57;;;8.50;92.20;;;;;;5033143;28;20033;-74
2021/11/11 08:58:32;;;;;;;48.90;27.63;;;8.50;92.10;;;;;;5034589;28;20433;-74
2021/11/11 09:01:02;;;;;;;45.67;24.33;;;8.50;92.10;;;;;;5033188;28;20080;-74
2021/11/11 09:03:28;;;;;;;39.53;24.10;;;8.50;92.10;;;;;;5034121;28;20108;-74
2021/11/11 09:05:55;;;;;;;46.73;26.17;;;8.50;92.10;;;;;;5032961;28;20474;-75
2021/11/11 09:08:21;;;;;;;47.27;26.57;;;8.60;92.10;;;;;;5032868;28;20112;-74
2021/11/11 09:10:47;;;;;;;44.90;24.63;;;8.60;92.00;;;;;;5032743;28;20111;-74
2021/11/11 09:13:13;;;;;;;45.80;25.10;;;8.60;91.80;;;;;;5016415;28;20473;-74
2021/11/11 09:15:39;;;;;;;43.60;24.33;;;8.60;91.70;;;;;;5033909;28;20441;-74
2021/11/11 09:18:07;;;;;;;37.53;23.93;;;8.60;91.70;;;;;;5033899;28;20025;-74
2021/11/11 09:20:34;;;;;;;44.07;24.10;;;8.60;91.80;;;;;;5033989;28;20536;-75
2021/11/11 09:23:01;;;;;;;42.17;24.30;;;8.60;91.80;;;;;;5038928;28;20025;-74
2021/11/11 09:25:27;;;;;;;45.10;24.73;;;8.70;91.90;;;;;;5052279;28;20040;-74
2021/11/11 09:27:55;;;;;;;41.73;23.03;;;8.70;91.80;;;;;;5052378;28;20028;-75
2021/11/11 09:30:26;;;;;;;42.40;23.80;;;8.80;91.90;;;;;;5035632;28;20037;-75
2021/11/11 09:32:53;;;;;;;38.93;23.13;;;8.80;91.80;;;;;;5052193;28;20053;-74
2021/11/11 09:35:19;;;;;;;40.67;23.37;;;8.90;91.70;;;;;;5053636;28;20033;-75
2021/11/11 09:37:45;;;;;;;43.50;23.40;;;8.90;91.50;;;;;;5053754;28;20504;-74
2021/11/11 09:40:14;;;;;;;42.63;24.53;;;9.00;91.40;;;;;;5051811;28;20423;-74
2021/11/11 09:42:40;;;;;;;41.27;22.13;;;8.90;91.20;;;;;;5052860;28;20469;-74
2021/11/11 09:45:10;;;;;;;40.53;24.67;;;9.00;91.20;;;;;;5035413;28;20028;-74
2021/11/11 09:47:36;;;;;;;42.90;22.40;;;9.00;91.10;;;;;;5052176;28;20029;-74
2021/11/11 09:50:06;;;;;;;41.80;24.93;;;9.00;91.10;;;;;;5053079;28;20095;-74
2021/11/11 09:52:34;;;;;;;35.80;21.40;;;9.00;91.10;;;;;;5052090;28;20063;-74
2021/11/11 10:00:30;;;;;;;39.63;22.83;;;9.10;91.20;;;;;;5053498;28;20108;-74
2021/11/11 10:02:56;;;;;;;37.47;23.50;;;9.20;91.20;;;;;;5053536;28;20048;-75
2021/11/11 10:05:22;;;;;;;42.17;23.93;;;9.30;91.20;;;;;;5052268;28;20030;-75
2021/11/11 10:07:49;;;;;;;41.50;23.37;;;9.30;91.20;;;;;;5035492;28;20388;-74
2021/11/11 10:10:40;;;;;;;46.30;23.87;;;9.40;91.10;;;;;;5052140;28;20393;-74
2021/11/11 10:13:18;;;;;;;39.40;22.10;;;9.40;91.00;;;;;;5052149;28;20028;-74
2021/11/11 10:16:13;;;;;;;45.77;23.30;;;9.50;91.00;;;;;;5052906;28;20017;-74
2021/11/11 10:18:52;;;;;;;41.07;24.53;;;9.60;90.90;;;;;;5053280;28;20088;-74
2021/11/11 10:21:42;;;;;;;40.20;22.60;;;9.60;90.70;;;;;;5051767;28;20492;-74
2021/11/11 10:24:17;;;;;;;34.67;21.97;;;9.70;90.70;;;;;;5053247;28;20027;-74
2021/11/11 10:26:58;;;;;;;40.23;22.33;;;9.70;90.70;;;;;;5052687;28;20029;-74
2021/11/11 10:29:32;;;;;;;36.23;22.37;;;9.80;90.60;;;;;;5051629;28;20025;-74
2021/11/11 10:32:01;;;;;;;37.80;21.38;;;9.80;90.40;;;;;;5051987;28;20047;-75
2021/11/11 10:34:27;;;;;;;38.43;22.17;;;9.90;90.40;;;;;;5053237;28;20056;-75
2021/11/11 10:36:54;;;;;;;46.87;25.10;;;9.90;90.40;;;;;;5051806;28;20482;-75
2021/11/11 10:39:26;;;;;;;43.93;24.83;;;9.90;90.30;;;;;;5055943;28;20021;-74
2021/11/11 10:41:53;;;;;;;40.77;23.30;;;10.00;90.30;;;;;;5056021;28;20021;-74
2021/11/11 10:44:31;;;;;;;39.47;23.07;;;10.00;90.30;;;;;;5057048;28;20079;-74
2021/11/11 10:47:07;;;;;;;36.77;22.57;;;10.00;90.30;;;;;;5055400;28;20435;-74
2021/11/11 10:49:37;;;;;;;43.63;23.83;;;10.10;90.30;;;;;;5056864;28;20108;-74
2021/11/11 10:52:24;;;;;;;37.00;22.50;;;10.10;90.30;;;;;;5052223;28;20082;-74
2021/11/11 10:54:57;;;;;;;41.93;22.23;;;10.20;90.30;;;;;;5058472;28;20121;-75
2021/11/11 10:57:43;;;;;;;40.47;22.42;;;10.20;90.30;;;;;;5036962;28;20024;-74
2021/11/11 11:00:27;;;;;;;38.77;20.80;;;10.30;90.20;;;;;;5036529;28;20026;-74
2021/11/11 11:03:18;;;;;;;51.40;22.13;;;10.40;90.20;;;;;;5036952;28;20025;-74
2021/11/11 11:06:04;;;;;;;37.40;22.00;;;10.40;90.20;;;;;;5054887;28;20021;-74
2021/11/11 11:08:30;;;;;;;35.90;20.70;;;10.50;90.10;;;;;;5055899;28;20039;-74
2021/11/11 11:11:04;;;;;;;39.33;23.50;;;10.40;90.00;;;;;;5056909;28;20036;-74
2021/11/11 11:13:37;;;;;;;36.83;22.40;;;10.50;90.00;;;;;;5056158;28;20017;-74
2021/11/11 11:16:09;;;;;;;43.30;23.25;;;10.60;89.90;;;;;;5055124;28;20036;-74
2021/11/11 11:18:43;;;;;;;39.67;22.87;;;10.60;89.70;;;;;;5055167;28;20449;-74
2021/11/11 11:21:13;;;;;;;41.07;24.10;;;10.60;89.50;;;;;;5056303;28;20021;-77
2021/11/11 11:23:45;;;;;;;42.07;23.30;;;10.60;89.00;;;;;;5056156;28;20102;-74
2021/11/11 11:26:15;;;;;;;37.40;23.73;;;10.60;88.90;;;;;;5054989;28;20025;-74
2021/11/11 11:28:48;;;;;;;40.00;22.13;;;10.50;88.90;;;;;;5056284;28;20021;-74
2021/11/11 11:31:24;;;;;;;39.72;23.17;;;10.60;89.10;;;;;;5055895;28;20444;-75
2021/11/11 11:33:50;;;;;;;37.87;22.73;;;10.50;89.10;;;;;;5054911;28;20055;-75
2021/11/11 11:36:18;;;;;;;39.58;22.38;;;10.60;89.20;;;;;;5038049;28;20033;-74
2021/11/11 11:38:52;;;;;;;42.13;23.53;;;10.60;89.30;;;;;;5054370;28;20029;-74
2021/11/11 11:41:33;;;;;;;38.38;22.02;;;10.60;89.10;;;;;;5055900;28;20060;-74
2021/11/11 11:44:26;;;;;;;43.17;23.17;;;10.60;89.10;;;;;;5055789;28;20029;-74
2021/11/11 11:46:54;;;;;;;40.87;21.90;;;10.60;89.20;;;;;;5054482;28;20024;-74
2021/11/11 11:49:22;;;;;;;39.13;23.00;;;10.60;89.30;;;;;;5054465;28;20025;-74
2021/11/11 11:51:48;;;;;;;43.93;24.57;;;10.60;89.40;;;;;;5055807;28;20112;-74
2021/11/11 11:54:35;;;;;;;38.97;23.30;;;10.60;89.30;;;;;;5054401;28;20053;-74
2021/11/11 11:57:06;;;;;;;40.43;24.67;;;10.70;89.30;;;;;;5055811;28;20028;-74
2021/11/11 11:59:37;;;;;;;43.57;24.63;;;10.70;89.30;;;;;;5055541;28;20032;-74
2021/11/11 12:02:12;;;;;;;38.77;23.07;;;10.70;89.10;;;;;;5054606;28;20473;-74
2021/11/11 12:07:14;;;;;;;44.27;23.17;;;10.70;89.20;;;;;;5054429;28;20119;-74
2021/11/11 12:09:55;;;;;;;34.92;23.20;;;10.70;89.20;;;;;;5055581;28;20407;-74
2021/11/11 12:12:38;;;;;;;40.27;23.27;;;10.70;89.20;;;;;;5054347;28;20021;-74
2021/11/11 12:40:33;;;;;;;;;;;11.10;89.90;;;;;;5055433;28;20087;-77
2021/11/11 12:43:15;;;;;;;37.95;21.67;;;11.10;89.90;;;;;;5056153;28;19909;-77
2021/11/11 12:45:41;;;;;;;31.23;21.87;;;11.10;89.90;;;;;;5053393;28;20458;-77
2021/11/11 12:48:10;;;;;;;37.03;22.92;;;11.10;89.90;;;;;;5053248;28;20491;-77
2021/11/11 12:50:38;;;;;;;36.17;23.10;;;11.10;89.90;;;;;;5054714;28;20063;-77
2021/11/11 12:53:13;;;;;;;39.97;22.47;;;11.10;89.90;;;;;;5053568;28;20448;-77
2021/11/11 12:55:52;;;;;;;34.20;22.45;;;11.10;90.00;;;;;;5054700;28;20051;-77
2021/11/11 12:58:20;;;;;;;42.38;21.88;;;11.10;90.00;;;;;;5053225;28;20025;-77
2021/11/11 13:00:53;;;;;;;31.85;21.33;;;11.30;90.10;;;;;;5052642;28;20389;-77
2021/11/11 13:03:20;;;;;;;37.63;21.88;;;11.30;90.10;;;;;;5054510;28;20028;-77
2021/11/11 13:05:52;;;;;;;35.65;21.92;;;11.30;90.10;;;;;;5054355;28;20409;-77
2021/11/11 13:08:41;;;;;;;37.90;21.63;;;11.40;90.10;;;;;;5054553;28;20025;-77
2021/11/11 13:11:08;;;;;;;35.78;21.60;;;11.40;90.00;;;;;;5041988;28;20037;-77
2021/11/11 13:13:36;;;;;;;38.80;20.98;;;11.50;90.00;;;;;;5052879;28;20496;-77
2021/11/11 13:16:14;;;;;;;35.10;21.38;;;11.50;89.70;;;;;;5054064;28;20466;-77
2021/11/11 13:18:40;;;;;;;32.35;20.27;;;11.50;89.60;;;;;;5052522;28;20032;-77
2021/11/11 13:21:13;;;;;;;33.80;20.13;;;11.50;89.60;;;;;;5052631;28;20032;-77
2021/11/11 13:23:55;;;;;;;36.08;21.33;;;11.40;89.60;;;;;;5053989;28;20489;-78
2021/11/11 13:27:08;;;;;;;36.50;20.63;;;11.40;89.50;;;;;;5052957;28;20021;-74
2021/11/11 15:57:18;;;;;;;36.30;22.00;;;11.40;90.20;;;;;;5055629;28;20032;-77
2021/11/11 16:21:32;;;;;;;35.60;22.83;;;11.30;90.30;;;;;;5055344;28;20516;-78
2021/11/11 16:26:25;;;;;;;37.30;23.08;;;11.30;90.40;;;;;;5055498;28;20090;-78
2021/11/11 16:28:56;;;;;;;40.13;24.83;;;11.20;90.40;;;;;;5053858;28;20033;-77
2021/11/11 16:31:24;;;;;;;39.30;24.33;;;11.20;90.50;;;;;;5037896;28;20060;-78
2021/11/11 16:33:50;;;;;;;45.20;25.47;;;11.20;90.60;;;;;;5055029;28;20040;-78